Time;durP1;ratioP1;P1;durP2;ratioP2;P2;SDS_P1;SDS_P2;PMS_P1;PMS_P2;Temp;Humidity;BMP_temperature;BMP_pressure;BME280_temperature;BME280_humidity;BME280_pressure;Samples;Min_cycle;Max_cycle;Signal;HPM_P1;HPM_P2
2023/12/08 00:03:27;;;;;;;5.57;4.00;;;;;4.10;100060.00;;;;10020411;29;20236;-79
2023/12/08 00:08:28;;;;;;;6.23;4.57;;;;;4.20;100044.00;;;;10050036;29;20232;-78
2023/12/08 00:13:29;;;;;;;7.13;4.43;;;;;4.10;100029.00;;;;10033919;29;20291;-79
2023/12/08 00:18:30;;;;;;;6.30;4.37;;;;;4.10;100028.00;;;;10046172;29;20228;-79
2023/12/08 00:23:32;;;;;;;6.67;4.30;;;;;4.10;100023.00;;;;10055243;29;20236;-78
2023/12/08 00:28:33;;;;;;;7.07;4.33;;;;;4.00;100009.00;;;;10067239;29;20331;-79
2023/12/08 00:33:34;;;;;;;6.40;4.50;;;;;3.90;99994.00;;;;10034606;29;20649;-79
2023/12/08 00:38:35;;;;;;;5.53;4.40;;;;;3.80;99997.00;;;;10064216;29;20232;-79
2023/12/08 00:43:37;;;;;;;6.07;4.87;;;;;3.80;99997.00;;;;10042790;29;20963;-80
2023/12/08 00:48:38;;;;;;;6.03;4.93;;;;;3.80;99986.00;;;;10061297;29;20238;-80
2023/12/08 00:53:41;;;;;;;10.33;5.40;;;;;3.70;99975.00;;;;10063486;29;20219;-81
2023/12/08 00:58:42;;;;;;;7.53;5.00;;;;;3.70;99962.00;;;;10033993;29;20227;-80
2023/12/08 01:03:43;;;;;;;10.33;5.67;;;;;3.60;99955.00;;;;10045210;29;20259;-80
2023/12/08 01:08:44;;;;;;;9.17;5.40;;;;;3.60;99934.00;;;;10040381;29;20229;-79
2023/12/08 01:13:46;;;;;;;7.37;5.50;;;;;3.60;99928.00;;;;10063980;29;20225;-79
2023/12/08 01:18:47;;;;;;;9.00;5.90;;;;;3.50;99957.00;;;;10029897;29;20912;-78
2023/12/08 01:23:48;;;;;;;10.27;6.57;;;;;3.50;99949.00;;;;10040257;29;20292;-80
2023/12/08 01:28:49;;;;;;;10.57;6.97;;;;;3.50;99966.00;;;;10056387;29;20243;-85
2023/12/08 01:33:51;;;;;;;13.07;6.27;;;;;3.50;99955.00;;;;10060197;29;20224;-86
2023/12/08 01:38:52;;;;;;;8.13;5.73;;;;;3.50;99958.00;;;;10042052;29;20242;-85
2023/12/08 01:43:53;;;;;;;9.37;6.50;;;;;3.50;99968.00;;;;10069656;29;20266;-84
2023/12/08 01:48:55;;;;;;;10.07;6.50;;;;;3.50;99976.00;;;;10043242;29;20319;-86
2023/12/08 01:53:56;;;;;;;9.73;6.80;;;;;3.50;99972.00;;;;10063442;29;20228;-84
2023/12/08 01:58:58;;;;;;;10.23;6.83;;;;;3.50;99967.00;;;;10092864;29;20261;-86
2023/12/08 02:03:59;;;;;;;9.80;6.40;;;;;3.50;99991.00;;;;10050941;29;20255;-86
2023/12/08 02:09:01;;;;;;;10.43;7.03;;;;;3.50;99984.00;;;;10033041;29;20224;-85
2023/12/08 02:14:03;;;;;;;9.30;6.47;;;;;3.50;99979.00;;;;10037069;29;20228;-86
2023/12/08 02:19:07;;;;;;;10.70;7.33;;;;;3.50;99969.00;;;;10049745;29;20227;-86
2023/12/08 02:24:08;;;;;;;10.70;7.47;;;;;3.50;99967.00;;;;10057684;29;20232;-86
2023/12/08 02:29:09;;;;;;;11.27;7.17;;;;;3.50;99962.00;;;;10055897;29;20236;-86
2023/12/08 02:34:16;;;;;;;15.43;7.67;;;;;3.50;99968.00;;;;10044080;29;20224;-86
2023/12/08 02:39:19;;;;;;;13.70;8.37;;;;;3.50;99977.00;;;;10059830;29;20230;-82
2023/12/08 02:44:20;;;;;;;15.70;8.20;;;;;3.50;99962.00;;;;10037366;29;20237;-87
2023/12/08 02:49:21;;;;;;;10.67;7.47;;;;;3.50;99953.00;;;;10054260;29;20255;-82
2023/12/08 02:54:23;;;;;;;13.40;8.40;;;;;3.50;99976.00;;;;10042804;29;20255;-81
2023/12/08 02:59:24;;;;;;;11.40;8.93;;;;;3.50;99959.00;;;;10050977;29;20909;-81
2023/12/08 03:04:25;;;;;;;12.23;8.57;;;;;3.50;99957.00;;;;10037357;29;20256;-81
2023/12/08 03:09:26;;;;;;;14.13;9.23;;;;;3.50;99969.00;;;;10053951;29;20229;-81
2023/12/08 03:14:27;;;;;;;13.93;9.33;;;;;3.50;99957.00;;;;10039210;29;20848;-81
2023/12/08 03:19:28;;;;;;;12.67;8.27;;;;;3.50;99954.00;;;;10034497;29;20253;-81
2023/12/08 03:24:30;;;;;;;14.90;10.33;;;;;3.50;99961.00;;;;10067233;29;20322;-82
2023/12/08 03:29:31;;;;;;;15.50;9.27;;;;;3.60;99953.00;;;;10050847;29;20220;-82
2023/12/08 03:34:32;;;;;;;19.70;10.27;;;;;3.60;99927.00;;;;10061641;29;20258;-81
2023/12/08 03:39:33;;;;;;;13.60;9.90;;;;;3.70;99928.00;;;;10053661;29;20315;-81
2023/12/08 03:44:35;;;;;;;18.40;10.43;;;;;3.70;99935.00;;;;10046663;29;20236;-81
2023/12/08 03:49:36;;;;;;;14.87;10.27;;;;;3.70;99937.00;;;;10039065;29;20244;-80
2023/12/08 03:54:37;;;;;;;14.47;9.43;;;;;3.80;99945.00;;;;10035710;29;20232;-79
2023/12/08 03:59:40;;;;;;;14.77;9.47;;;;;3.80;99946.00;;;;10026211;29;20318;-79
2023/12/08 04:04:42;;;;;;;14.70;10.10;;;;;3.90;99937.00;;;;10039719;29;20966;-79
2023/12/08 04:09:43;;;;;;;15.67;9.40;;;;;3.90;99922.00;;;;10037635;29;20711;-80
2023/12/08 04:14:44;;;;;;;14.27;9.67;;;;;3.90;99931.00;;;;10039027;29;20329;-79
2023/12/08 04:19:46;;;;;;;16.30;10.00;;;;;4.00;99935.00;;;;10042893;29;20233;-79
2023/12/08 04:24:47;;;;;;;19.13;11.40;;;;;4.00;99949.00;;;;10060125;29;20232;-79
2023/12/08 04:29:48;;;;;;;20.17;10.83;;;;;4.10;99945.00;;;;10035544;29;20941;-79
2023/12/08 04:34:49;;;;;;;20.57;11.27;;;;;4.20;99955.00;;;;10027078;29;20236;-80
2023/12/08 04:39:51;;;;;;;18.07;10.43;;;;;4.20;99954.00;;;;10048762;29;20216;-79
2023/12/08 04:44:52;;;;;;;17.57;11.27;;;;;4.30;99959.00;;;;10049587;29;20248;-80
2023/12/08 04:49:54;;;;;;;17.07;10.37;;;;;4.30;99947.00;;;;10045019;29;20872;-79
2023/12/08 04:54:55;;;;;;;22.20;10.80;;;;;4.40;99938.00;;;;10033268;29;20232;-80
2023/12/08 05:55:36;;;;;;;28.40;12.60;;;;;5.10;99959.00;;;;11813336;23;20224;31
2023/12/08 06:00:48;;;;;;;30.47;12.27;;;;;5.20;99959.00;;;;11788741;23;20203;31
2023/12/08 06:11:50;;;;;;;24.97;12.70;;;;;5.30;99959.00;;;;10046167;29;20563;-80
2023/12/08 06:16:51;;;;;;;34.60;12.93;;;;;5.40;99963.00;;;;10046596;29;20235;-83
2023/12/08 06:21:52;;;;;;;27.97;14.60;;;;;5.50;99978.00;;;;10030683;29;20231;-80
2023/12/08 06:26:53;;;;;;;34.20;15.10;;;;;5.50;99978.00;;;;10004992;29;20232;-78
2023/12/08 06:31:55;;;;;;;36.40;15.53;;;;;5.60;99989.00;;;;10033799;29;20830;-78
2023/12/08 06:36:56;;;;;;;32.67;15.57;;;;;5.70;99993.00;;;;10047447;29;20267;-79
2023/12/08 06:41:57;;;;;;;39.63;13.87;;;;;5.70;100006.00;;;;10048902;29;20718;-80
2023/12/08 06:46:58;;;;;;;33.63;14.73;;;;;5.80;100017.00;;;;10047156;29;20569;-81
2023/12/08 06:51:59;;;;;;;39.03;15.33;;;;;5.80;100025.00;;;;10019381;29;20270;-81
2023/12/08 06:57:01;;;;;;;36.33;13.73;;;;;5.80;100023.00;;;;10026678;29;20258;-82
2023/12/08 07:02:02;;;;;;;32.60;14.40;;;;;5.90;100029.00;;;;10014629;29;20878;-83
2023/12/08 07:07:04;;;;;;;35.47;14.33;;;;;6.00;100038.00;;;;10024748;29;20244;-80
2023/12/08 07:12:05;;;;;;;34.53;14.77;;;;;6.00;100043.00;;;;10051494;29;20232;-81
2023/12/08 07:17:07;;;;;;;41.20;13.97;;;;;6.00;100042.00;;;;10044363;29;20232;-80
2023/12/08 07:22:08;;;;;;;38.27;14.77;;;;;6.10;100045.00;;;;10046078;29;20232;-80
2023/12/08 07:27:09;;;;;;;41.07;16.00;;;;;6.10;100057.00;;;;10051865;29;20306;-80
2023/12/08 07:32:10;;;;;;;47.17;16.47;;;;;6.20;100061.00;;;;9997765;29;20237;-79
2023/12/08 07:37:11;;;;;;;50.00;17.03;;;;;6.20;100053.00;;;;10029584;29;20256;-79
2023/12/08 07:42:13;;;;;;;38.30;17.40;;;;;6.30;100063.00;;;;10044242;29;20228;-81
2023/12/08 07:47:14;;;;;;;47.40;18.03;;;;;6.30;100081.00;;;;10038075;29;20252;-80
2023/12/08 07:52:16;;;;;;;42.90;13.50;;;;;6.40;100073.00;;;;10037549;29;20230;-79
2023/12/08 07:57:18;;;;;;;43.83;16.67;;;;;6.40;100099.00;;;;10022921;29;20351;-77
2023/12/08 08:02:19;;;;;;;53.17;16.83;;;;;6.50;100108.00;;;;10028231;29;20232;-80
2023/12/08 08:07:20;;;;;;;39.20;16.33;;;;;6.60;100093.00;;;;10017340;29;20237;-80
2023/12/08 08:12:22;;;;;;;39.43;15.30;;;;;6.60;100091.00;;;;10000936;29;20247;-80
2023/12/08 08:17:23;;;;;;;37.97;16.20;;;;;6.70;100104.00;;;;10032528;29;20240;-78
2023/12/08 08:22:24;;;;;;;38.80;16.80;;;;;6.90;100114.00;;;;10018794;29;20854;-80
2023/12/08 08:27:33;;;;;;;45.87;18.57;;;;;7.00;100119.00;;;;10044528;29;20236;-81
2023/12/08 08:32:34;;;;;;;39.37;18.80;;;;;7.10;100124.00;;;;10016571;29;20323;-82
2023/12/08 08:37:35;;;;;;;45.47;16.17;;;;;7.20;100133.00;;;;9998224;29;20740;-81
2023/12/08 08:42:37;;;;;;;47.30;17.00;;;;;7.30;100149.00;;;;10018438;29;20584;-81
2023/12/08 08:47:39;;;;;;;44.20;15.43;;;;;7.30;100154.00;;;;10020356;29;20228;-80
2023/12/08 08:52:41;;;;;;;38.23;15.90;;;;;7.40;100154.00;;;;10011879;29;20244;-81
2023/12/08 08:57:44;;;;;;;34.87;15.33;;;;;7.50;100163.00;;;;10011898;29;20281;-82
2023/12/08 09:02:49;;;;;;;40.73;15.73;;;;;7.50;100155.00;;;;9995935;29;20264;-81
2023/12/08 09:07:50;;;;;;;38.97;15.50;;;;;7.60;100174.00;;;;10006649;29;20239;-81
2023/12/08 09:12:51;;;;;;;37.73;15.10;;;;;7.80;100193.00;;;;10026061;29;20384;-81
2023/12/08 09:17:53;;;;;;;38.13;15.13;;;;;7.70;100186.00;;;;10041022;29;20247;-80
2023/12/08 09:22:54;;;;;;;36.97;14.57;;;;;7.70;100186.00;;;;10028634;29;21016;-82
2023/12/08 09:27:56;;;;;;;43.93;15.17;;;;;7.80;100187.00;;;;10030459;29;20323;-81
2023/12/08 09:32:58;;;;;;;38.17;14.47;;;;;7.90;100186.00;;;;10018192;29;20300;-81
2023/12/08 09:37:59;;;;;;;39.83;15.07;;;;;8.00;100214.00;;;;10032945;29;20231;-82
2023/12/08 09:43:10;;;;;;;43.67;13.97;;;;;8.10;100210.00;;;;10021094;29;20235;-82
2023/12/08 09:48:12;;;;;;;36.00;14.13;;;;;8.20;100216.00;;;;10010424;29;20248;-80
2023/12/08 09:53:13;;;;;;;30.10;13.47;;;;;8.20;100219.00;;;;10001535;29;20280;-80
2023/12/08 09:58:17;;;;;;;29.10;14.00;;;;;8.20;100227.00;;;;10024937;29;20703;-80
2023/12/08 10:03:18;;;;;;;33.03;14.30;;;;;8.30;100228.00;;;;10014471;29;20720;-82
2023/12/08 10:08:20;;;;;;;34.23;13.27;;;;;8.40;100216.00;;;;10009617;29;20361;-80
2023/12/08 10:13:21;;;;;;;32.60;13.90;;;;;8.40;100217.00;;;;10037308;29;20252;-82
2023/12/08 10:18:24;;;;;;;29.80;12.17;;;;;8.50;100228.00;;;;10014238;29;20240;-81
2023/12/08 10:23:27;;;;;;;32.17;12.70;;;;;8.60;100221.00;;;;9994598;29;20372;-82
2023/12/08 10:28:28;;;;;;;27.70;13.20;;;;;8.60;100241.00;;;;10001447;29;20380;-80
2023/12/08 10:33:29;;;;;;;30.70;12.20;;;;;8.60;100221.00;;;;10014159;29;20236;-79
2023/12/08 10:38:31;;;;;;;27.87;10.53;;;;;8.70;100223.00;;;;10025612;29;20232;-81
2023/12/08 10:43:32;;;;;;;25.80;11.17;;;;;8.80;100225.00;;;;10014729;29;20237;-81
2023/12/08 10:48:35;;;;;;;30.63;12.37;;;;;8.70;100234.00;;;;10027509;29;20247;-79
2023/12/08 10:53:37;;;;;;;23.40;11.13;;;;;8.70;100234.00;;;;10044999;29;20917;-79
2023/12/08 10:58:44;;;;;;;24.47;11.47;;;;;8.80;100228.00;;;;10020828;29;20240;-79
2023/12/08 11:03:48;;;;;;;26.13;9.40;;;;;8.80;100227.00;;;;10004855;29;20237;-81
2023/12/08 11:09:06;;;;;;;25.83;9.70;;;;;8.70;100241.00;;;;10027647;29;20572;-83
2023/12/08 11:14:19;;;;;;;23.00;9.27;;;;;8.70;100232.00;;;;10006340;29;20231;-82
2023/12/08 11:19:21;;;;;;;27.90;10.90;;;;;8.70;100234.00;;;;10014557;29;20903;-80
2023/12/08 11:24:27;;;;;;;26.93;12.20;;;;;8.70;100247.00;;;;10020004;29;20243;-81
2023/12/08 11:29:44;;;;;;;27.83;11.17;;;;;8.70;100243.00;;;;9996510;29;20305;-80
2023/12/08 11:35:09;;;;;;;23.17;11.67;;;;;8.60;100236.00;;;;9980865;29;20872;-80
2023/12/08 11:40:11;;;;;;;31.47;13.23;;;;;8.70;100236.00;;;;10013521;29;20225;-82
2023/12/08 11:45:12;;;;;;;29.23;13.63;;;;;8.80;100236.00;;;;10005546;29;20319;-81
2023/12/08 11:50:16;;;;;;;29.00;13.83;;;;;8.80;100244.00;;;;10004349;29;20228;-81
2023/12/08 11:55:20;;;;;;;29.67;13.00;;;;;8.90;100241.00;;;;10012541;29;20232;-81
2023/12/08 12:00:34;;;;;;;26.17;11.63;;;;;8.80;100235.00;;;;10013023;29;20258;-79
2023/12/08 12:05:38;;;;;;;31.93;12.90;;;;;8.80;100243.00;;;;10029284;29;20232;-80
2023/12/08 12:10:40;;;;;;;27.90;12.47;;;;;8.60;100244.00;;;;10021976;29;20351;-80
2023/12/08 12:15:42;;;;;;;27.03;11.63;;;;;8.70;100240.00;;;;10017286;29;20267;-80
2023/12/08 12:20:45;;;;;;;29.43;10.17;;;;;8.80;100236.00;;;;10023899;29;20222;-79
2023/12/08 12:25:47;;;;;;;26.37;9.80;;;;;8.80;100241.00;;;;10023124;29;20307;-80
2023/12/08 12:30:49;;;;;;;21.50;10.73;;;;;8.90;100250.00;;;;9994771;29;20323;-79
2023/12/08 12:35:50;;;;;;;21.90;9.60;;;;;8.80;100253.00;;;;9992866;29;20311;-81
2023/12/08 12:41:20;;;;;;;24.33;10.63;;;;;8.80;100257.00;;;;9992795;29;20339;-80
2023/12/08 12:46:21;;;;;;;27.30;10.73;;;;;8.70;100256.00;;;;10014202;29;20887;-78
2023/12/08 12:51:36;;;;;;;28.60;11.03;;;;;8.70;100266.00;;;;10011734;29;20259;-80
2023/12/08 12:56:51;;;;;;;25.80;9.87;;;;;8.80;100270.00;;;;10032899;29;20236;-80
2023/12/08 13:01:53;;;;;;;19.27;8.57;;;;;8.80;100271.00;;;;10002827;29;20263;-80
2023/12/08 13:06:54;;;;;;;17.97;8.67;;;;;8.80;100271.00;;;;10003784;29;20240;-82
2023/12/08 13:11:56;;;;;;;17.27;7.83;;;;;8.90;100268.00;;;;10006401;29;20259;-80
2023/12/08 13:16:58;;;;;;;22.87;9.23;;;;;8.80;100280.00;;;;10026538;29;20243;-82
2023/12/08 13:21:59;;;;;;;26.97;10.23;;;;;8.90;100283.00;;;;10015282;29;20634;-80
2023/12/08 13:27:01;;;;;;;23.90;9.37;;;;;9.00;100297.00;;;;9994754;29;20260;-80
2023/12/08 13:32:04;;;;;;;20.20;9.17;;;;;9.00;100304.00;;;;10001942;29;20258;-80
2023/12/08 13:37:06;;;;;;;20.43;9.60;;;;;9.00;100318.00;;;;10015568;29;20236;-83
2023/12/08 13:42:07;;;;;;;21.30;10.07;;;;;9.00;100321.00;;;;10029870;29;20239;-83
2023/12/08 13:47:09;;;;;;;20.80;9.97;;;;;9.00;100323.00;;;;10003484;29;21042;-80
2023/12/08 13:52:10;;;;;;;18.93;10.17;;;;;9.20;100306.00;;;;10021869;29;20735;-81
2023/12/08 13:57:11;;;;;;;24.87;10.70;;;;;9.20;100321.00;;;;10023285;29;20978;-81
2023/12/08 14:02:12;;;;;;;21.80;9.40;;;;;9.30;100313.00;;;;10025363;29;20225;-81
2023/12/08 14:07:14;;;;;;;17.83;8.00;;;;;9.10;100314.00;;;;10021591;29;20239;-81
2023/12/08 14:12:15;;;;;;;21.27;9.63;;;;;9.10;100319.00;;;;9989610;29;20241;-80
2023/12/08 14:17:17;;;;;;;21.73;10.70;;;;;9.10;100322.00;;;;10005868;29;20228;-79
2023/12/08 14:22:18;;;;;;;18.77;9.60;;;;;9.10;100335.00;;;;9990578;29;20343;-79
2023/12/08 14:27:21;;;;;;;23.07;11.20;;;;;9.00;100339.00;;;;10034824;29;20238;-80
2023/12/08 14:32:22;;;;;;;26.27;11.53;;;;;9.00;100348.00;;;;10041564;29;20272;-79
2023/12/08 14:37:24;;;;;;;27.80;10.70;;;;;9.00;100340.00;;;;9993100;29;20240;-79
2023/12/08 14:42:26;;;;;;;26.17;10.80;;;;;8.90;100340.00;;;;10010463;29;20377;-78
2023/12/08 14:47:27;;;;;;;26.57;12.53;;;;;9.00;100344.00;;;;10006796;29;20244;-77
2023/12/08 14:52:29;;;;;;;32.13;12.33;;;;;9.00;100350.00;;;;10033601;29;20229;-78
2023/12/08 14:57:30;;;;;;;31.17;12.07;;;;;9.00;100354.00;;;;10007302;29;20271;-79
2023/12/08 15:02:31;;;;;;;30.23;12.40;;;;;8.90;100360.00;;;;10041067;29;20237;-79
2023/12/08 15:07:32;;;;;;;29.00;12.20;;;;;8.90;100363.00;;;;10024626;29;20260;-78
2023/12/08 15:12:35;;;;;;;31.23;11.80;;;;;8.80;100369.00;;;;10020614;29;20376;-77
2023/12/08 15:17:37;;;;;;;33.23;13.20;;;;;8.80;100372.00;;;;10008792;29;20353;-78
2023/12/08 15:22:39;;;;;;;39.87;13.50;;;;;8.80;100377.00;;;;10033781;29;20268;-78
2023/12/08 15:27:40;;;;;;;36.67;12.60;;;;;8.80;100399.00;;;;10021353;29;20289;-85
2023/12/08 15:32:41;;;;;;;36.10;12.20;;;;;8.80;100394.00;;;;10033264;29;20237;-86
2023/12/08 15:37:43;;;;;;;34.67;11.90;;;;;8.60;100387.00;;;;10070140;29;20228;-85
2023/12/08 15:42:44;;;;;;;31.43;10.90;;;;;8.40;100387.00;;;;10029460;29;20281;-86
2023/12/08 15:47:45;;;;;;;34.90;12.73;;;;;8.30;100399.00;;;;10005238;29;20225;-86
2023/12/08 15:52:46;;;;;;;31.47;11.70;;;;;8.10;100400.00;;;;10007841;29;20232;-86
2023/12/08 15:57:48;;;;;;;33.77;11.60;;;;;8.00;100418.00;;;;10022521;29;20242;-86
2023/12/08 16:02:49;;;;;;;28.13;10.57;;;;;8.00;100419.00;;;;10013981;29;20312;-87
2023/12/08 16:07:50;;;;;;;24.77;10.13;;;;;7.90;100405.00;;;;10007386;29;20778;-87
2023/12/08 16:12:51;;;;;;;35.37;10.00;;;;;7.80;100411.00;;;;10022824;29;20273;-88
2023/12/08 16:17:53;;;;;;;25.30;10.10;;;;;7.60;100415.00;;;;10034131;29;20258;-87
2023/12/08 16:22:54;;;;;;;36.33;10.17;;;;;7.60;100419.00;;;;10022082;29;20248;-87
2023/12/08 16:27:55;;;;;;;28.60;9.50;;;;;7.50;100414.00;;;;10056102;29;20287;-86
2023/12/08 16:32:56;;;;;;;33.80;9.97;;;;;7.40;100426.00;;;;10004451;29;20263;-87
2023/12/08 16:37:58;;;;;;;36.20;9.77;;;;;7.30;100425.00;;;;10010488;29;20293;-80
2023/12/08 16:42:59;;;;;;;32.20;10.63;;;;;7.20;100422.00;;;;10038550;29;20903;-79
2023/12/08 16:48:01;;;;;;;34.40;11.00;;;;;7.10;100431.00;;;;10040932;29;20469;-80
2023/12/08 16:53:02;;;;;;;39.37;12.37;;;;;7.10;100436.00;;;;10039818;29;20256;-82
2023/12/08 16:58:04;;;;;;;34.57;10.30;;;;;7.20;100440.00;;;;10007286;29;20232;-81
2023/12/08 17:03:05;;;;;;;40.93;11.10;;;;;7.10;100450.00;;;;10023888;29;20761;-80
2023/12/08 17:08:06;;;;;;;32.53;11.83;;;;;7.10;100445.00;;;;10015812;29;20231;-81
2023/12/08 17:13:07;;;;;;;44.07;12.77;;;;;7.10;100440.00;;;;10027258;29;20747;-81
2023/12/08 17:18:08;;;;;;;38.43;12.87;;;;;7.00;100443.00;;;;10023993;29;20873;-80
2023/12/08 17:23:10;;;;;;;36.07;13.17;;;;;6.90;100434.00;;;;10025399;29;20318;-79
2023/12/08 17:28:11;;;;;;;40.70;12.27;;;;;6.80;100439.00;;;;10015452;29;20254;-79
2023/12/08 17:33:12;;;;;;;37.20;12.70;;;;;6.70;100440.00;;;;10029817;29;20244;-82
2023/12/08 17:38:15;;;;;;;42.87;13.27;;;;;6.80;100438.00;;;;10048548;29;20239;-82
2023/12/08 17:43:16;;;;;;;38.27;12.83;;;;;6.80;100431.00;;;;10051322;29;20323;-79
2023/12/08 17:48:18;;;;;;;42.27;13.00;;;;;6.80;100445.00;;;;10027753;29;21011;-79
2023/12/08 17:53:20;;;;;;;43.27;11.83;;;;;6.80;100449.00;;;;9999210;29;20240;-79
2023/12/08 17:58:21;;;;;;;35.50;12.33;;;;;6.80;100464.00;;;;10004366;29;20243;-79
2023/12/08 18:03:28;;;;;;;38.07;12.80;;;;;6.70;100459.00;;;;10024827;29;20661;-79
2023/12/08 18:08:30;;;;;;;48.63;13.30;;;;;6.60;100469.00;;;;10040962;29;20232;-80
2023/12/08 18:13:31;;;;;;;36.70;12.63;;;;;6.60;100461.00;;;;10042812;29;20240;-80
2023/12/08 18:18:32;;;;;;;45.03;13.13;;;;;6.50;100467.00;;;;10031106;29;20263;-80
2023/12/08 18:23:34;;;;;;;35.70;11.37;;;;;6.50;100462.00;;;;10013811;29;20245;-80
2023/12/08 18:28:35;;;;;;;31.77;8.73;;;;;6.40;100467.00;;;;10009306;29;20610;-79
2023/12/08 18:34:02;;;;;;;38.97;11.03;;;;;6.40;100471.00;;;;10015156;29;20241;-80
2023/12/08 18:39:04;;;;;;;33.77;9.63;;;;;6.40;100477.00;;;;10013026;29;20235;-79
2023/12/08 18:44:06;;;;;;;36.37;10.07;;;;;6.50;100469.00;;;;10017950;29;20233;-79
2023/12/08 18:49:07;;;;;;;40.10;11.13;;;;;6.60;100482.00;;;;10039718;29;20801;-79
2023/12/08 18:54:09;;;;;;;42.30;10.60;;;;;6.60;100477.00;;;;10031820;29;20243;-79
2023/12/08 18:59:10;;;;;;;31.23;10.37;;;;;6.70;100483.00;;;;10001785;29;20232;-79
2023/12/08 19:04:11;;;;;;;43.37;10.37;;;;;6.70;100484.00;;;;10029219;29;20236;-80
2023/12/08 19:09:17;;;;;;;47.23;11.83;;;;;6.80;100486.00;;;;10037191;29;20885;-80
2023/12/08 19:14:18;;;;;;;51.57;12.27;;;;;7.00;100487.00;;;;10038559;29;20612;-80
2023/12/08 19:19:20;;;;;;;38.07;11.10;;;;;7.30;100492.00;;;;10047982;29;20302;-82
2023/12/08 19:24:21;;;;;;;34.80;10.40;;;;;7.30;100494.00;;;;9996367;29;20240;-80
2023/12/08 19:29:23;;;;;;;35.53;10.47;;;;;7.20;100497.00;;;;10029952;29;20305;-79
2023/12/08 19:34:24;;;;;;;44.27;11.07;;;;;7.20;100497.00;;;;9994084;29;20237;-81
2023/12/08 19:39:25;;;;;;;42.37;10.07;;;;;7.20;100482.00;;;;10041356;29;20373;-80
2023/12/08 19:44:26;;;;;;;35.03;9.80;;;;;7.20;100490.00;;;;10031094;29;20706;-82
2023/12/08 19:49:28;;;;;;;41.53;9.53;;;;;7.30;100491.00;;;;9998825;29;20309;-80
2023/12/08 19:54:30;;;;;;;35.10;9.63;;;;;7.40;100498.00;;;;10003706;29;20225;-80
2023/12/08 19:59:31;;;;;;;28.50;8.90;;;;;7.50;100501.00;;;;10006175;29;20232;-81
2023/12/08 20:04:32;;;;;;;40.87;8.87;;;;;7.60;100497.00;;;;10030635;29;20232;-81
2023/12/08 20:09:34;;;;;;;36.47;10.33;;;;;7.60;100491.00;;;;10008841;29;20236;-80
2023/12/08 20:14:35;;;;;;;24.57;8.77;;;;;7.60;100502.00;;;;10015296;29;20272;-79
2023/12/08 20:19:38;;;;;;;34.80;8.83;;;;;7.80;100512.00;;;;10039380;29;20236;-79
2023/12/08 20:24:39;;;;;;;37.40;9.20;;;;;7.80;100508.00;;;;10023542;29;20232;-79
2023/12/08 20:29:41;;;;;;;37.97;9.37;;;;;7.80;100510.00;;;;10016222;29;20324;-80
2023/12/08 20:34:42;;;;;;;36.13;8.87;;;;;7.70;100512.00;;;;10006889;29;20235;-79
2023/12/08 20:39:44;;;;;;;43.63;8.90;;;;;7.60;100513.00;;;;10012582;29;20233;-80
2023/12/08 20:44:45;;;;;;;33.23;9.13;;;;;7.50;100509.00;;;;10025189;29;20326;-79
2023/12/08 20:49:46;;;;;;;32.20;9.50;;;;;7.60;100515.00;;;;10021215;29;20236;-80
2023/12/08 20:54:48;;;;;;;31.50;9.17;;;;;7.50;100525.00;;;;10022450;29;20279;-79
2023/12/08 20:59:49;;;;;;;29.07;9.20;;;;;7.60;100513.00;;;;10031216;29;20229;-80
2023/12/08 21:04:50;;;;;;;30.77;9.03;;;;;7.60;100523.00;;;;10022183;29;20231;-80
2023/12/08 21:09:52;;;;;;;23.87;8.60;;;;;7.70;100521.00;;;;10008566;29;20252;-80
2023/12/08 21:14:53;;;;;;;31.80;9.00;;;;;7.70;100522.00;;;;10012655;29;20885;-80
2023/12/08 21:19:54;;;;;;;40.27;9.57;;;;;7.70;100530.00;;;;9990508;29;20223;-80
2023/12/08 21:24:55;;;;;;;31.37;9.00;;;;;7.60;100528.00;;;;10010659;29;20289;-80
2023/12/08 21:29:56;;;;;;;32.93;7.80;;;;;7.60;100529.00;;;;10042993;29;20304;-80
2023/12/08 21:34:58;;;;;;;28.40;8.70;;;;;7.70;100525.00;;;;10001527;29;20240;-80
2023/12/08 21:39:59;;;;;;;31.70;9.00;;;;;7.70;100541.00;;;;10032049;29;20263;-80
2023/12/08 21:45:02;;;;;;;35.63;8.53;;;;;7.60;100540.00;;;;10003148;29;20373;-80
2023/12/08 21:50:05;;;;;;;38.47;9.50;;;;;7.50;100547.00;;;;10002618;29;20335;-80
2023/12/08 21:55:07;;;;;;;26.73;9.13;;;;;7.50;100543.00;;;;10018912;29;20245;-80
2023/12/08 22:00:09;;;;;;;31.03;9.83;;;;;7.40;100557.00;;;;10033666;29;20311;-80
2023/12/08 22:05:14;;;;;;;33.17;10.13;;;;;7.50;100560.00;;;;10005478;29;20237;-81
2023/12/08 22:10:15;;;;;;;27.27;9.63;;;;;7.50;100560.00;;;;9999970;29;20703;-80
2023/12/08 22:15:16;;;;;;;27.63;9.63;;;;;7.50;100551.00;;;;10025952;29;20243;-80
2023/12/08 22:20:18;;;;;;;31.07;10.43;;;;;7.40;100558.00;;;;10003799;29;20237;-81
2023/12/08 22:25:19;;;;;;;29.97;9.37;;;;;7.30;100563.00;;;;10038195;29;20323;-78
2023/12/08 22:30:20;;;;;;;30.13;10.70;;;;;7.20;100549.00;;;;10033541;29;20311;-81
2023/12/08 22:35:21;;;;;;;31.47;9.70;;;;;7.10;100549.00;;;;10007108;29;20347;-81
2023/12/08 22:40:23;;;;;;;28.37;9.83;;;;;7.10;100566.00;;;;10038127;29;20295;-82
2023/12/08 22:45:24;;;;;;;40.10;10.13;;;;;7.00;100553.00;;;;10018603;29;20235;-84
2023/12/08 22:50:25;;;;;;;27.20;9.03;;;;;7.00;100563.00;;;;10044907;29;20821;-81
2023/12/08 22:55:39;;;;;;;35.77;9.53;;;;;7.10;100551.00;;;;10020326;29;20273;-82
2023/12/08 23:00:40;;;;;;;35.73;10.23;;;;;7.10;100559.00;;;;10020713;29;20331;-82
2023/12/08 23:05:41;;;;;;;27.60;9.60;;;;;7.20;100560.00;;;;10035690;29;20225;-82
2023/12/08 23:10:42;;;;;;;32.20;10.00;;;;;7.10;100561.00;;;;10026566;29;20239;-84
2023/12/08 23:15:43;;;;;;;32.57;10.13;;;;;7.00;100560.00;;;;10023011;29;20243;-81
2023/12/08 23:20:44;;;;;;;20.77;10.43;;;;;6.90;100567.00;;;;9996835;29;20692;-81
2023/12/08 23:25:46;;;;;;;31.40;9.50;;;;;6.90;100568.00;;;;10023686;29;20331;-82
2023/12/08 23:30:47;;;;;;;24.20;10.07;;;;;6.90;100573.00;;;;10020394;29;20331;-81
2023/12/08 23:36:01;;;;;;;28.27;9.07;;;;;6.80;100575.00;;;;9999387;29;20325;-87
2023/12/08 23:41:02;;;;;;;36.43;11.27;;;;;6.80;100593.00;;;;10009989;29;20254;-86
2023/12/08 23:46:04;;;;;;;34.23;10.00;;;;;6.80;100605.00;;;;10026926;29;20257;-89
2023/12/08 23:51:05;;;;;;;33.20;11.83;;;;;6.80;100601.00;;;;10045945;29;20239;-88
2023/12/08 23:56:07;;;;;;;32.27;10.43;;;;;6.70;100605.00;;;;10028061;29;20237;-88
